Time;durP1;ratioP1;P1;durP2;ratioP2;P2;SDS_P1;SDS_P2;PMS_P1;PMS_P2;Temp;Humidity;BMP_temperature;BMP_pressure;BME280_temperature;BME280_humidity;BME280_pressure;Samples;Min_cycle;Max_cycle;Signal;HPM_P1;HPM_P2
2021/05/17 04:14:45;;;;;;;0.70;0.70;;;12.00;99.90;;;;;;4957022;29;20209;-77
2021/05/17 04:17:12;;;;;;;0.68;0.68;;;12.00;99.90;;;;;;4957014;29;20260;-77
2021/05/17 04:19:40;;;;;;;0.70;0.70;;;12.00;99.90;;;;;;4957041;29;20202;-78
2021/05/17 04:22:07;;;;;;;0.70;0.70;;;11.90;99.90;;;;;;4943137;29;20229;-77
2021/05/17 04:24:34;;;;;;;0.70;0.70;;;12.10;99.90;;;;;;4936641;29;20260;-77
2021/05/17 04:27:03;;;;;;;0.70;0.70;;;11.30;99.90;;;;;;4936417;29;20663;-77
2021/05/17 04:29:31;;;;;;;0.63;0.63;;;12.10;99.90;;;;;;4937489;29;20209;-77
2021/05/17 04:31:58;;;;;;;0.70;0.70;;;12.10;99.90;;;;;;4937023;29;20582;-77
2021/05/17 04:34:26;;;;;;;0.70;0.70;;;12.20;99.90;;;;;;4942859;29;20226;-77
2021/05/17 04:36:53;;;;;;;0.70;0.70;;;12.20;99.90;;;;;;4948723;29;20205;-77
2021/05/17 04:39:21;;;;;;;0.80;0.80;;;12.20;99.90;;;;;;4956401;29;20209;-77
2021/05/17 04:41:48;;;;;;;0.60;0.60;;;12.20;99.90;;;;;;4955965;28;20702;-77
2021/05/17 04:44:16;;;;;;;0.70;0.70;;;12.30;99.90;;;;;;4956121;29;20288;-77
2021/05/17 04:46:44;;;;;;;0.70;0.70;;;12.30;99.90;;;;;;4956446;29;20272;-77
2021/05/17 04:49:11;;;;;;;0.70;0.70;;;12.40;99.90;;;;;;4956216;29;20213;-77
2021/05/17 04:51:38;;;;;;;0.70;0.70;;;12.50;99.90;;;;;;4956228;28;20225;-77
2021/05/17 04:54:06;;;;;;;0.80;0.80;;;12.60;99.90;;;;;;4956580;29;20236;-78
2021/05/17 04:56:33;;;;;;;0.60;0.60;;;12.40;99.90;;;;;;4956232;29;20614;-77
2021/05/17 04:59:01;;;;;;;0.60;0.60;;;12.40;99.90;;;;;;4956064;29;20666;-77
2021/05/17 05:01:29;;;;;;;0.82;0.82;;;12.40;99.90;;;;;;4955694;28;20225;-77
2021/05/17 05:03:56;;;;;;;0.65;0.65;;;12.30;99.90;;;;;;4955066;29;20205;-76
2021/05/17 05:06:24;;;;;;;0.82;0.82;;;12.40;99.90;;;;;;4954135;29;20260;-77
2021/05/17 05:08:51;;;;;;;0.60;0.60;;;12.40;99.90;;;;;;4945573;29;20206;-77
2021/05/17 05:11:19;;;;;;;0.70;0.70;;;12.40;99.90;;;;;;4936208;29;20726;-76
2021/05/17 05:13:46;;;;;;;0.70;0.70;;;12.60;99.90;;;;;;4936335;29;20276;-77
2021/05/17 05:16:13;;;;;;;0.70;0.70;;;12.40;99.90;;;;;;4936188;29;20206;-77
2021/05/17 05:18:41;;;;;;;0.70;0.70;;;12.50;99.90;;;;;;4936508;29;20202;-77
2021/05/17 05:21:09;;;;;;;0.70;0.70;;;12.60;99.90;;;;;;4943443;28;20280;-77
2021/05/17 05:23:36;;;;;;;0.70;0.70;;;12.80;99.90;;;;;;4946570;29;20225;-76
2021/05/17 05:29:05;;;;;;;0.70;0.70;;;13.10;99.90;;;;;;4915676;29;20202;-77
2021/05/17 05:31:38;;;;;;;0.60;0.60;;;13.30;99.90;;;;;;4948057;29;20217;-76
2021/05/17 05:34:07;;;;;;;0.70;0.70;;;13.40;99.90;;;;;;4943837;29;20218;-76
2021/05/17 05:36:35;;;;;;;0.60;0.60;;;13.60;99.90;;;;;;4951268;29;20225;-76
2021/05/17 05:39:03;;;;;;;0.70;0.70;;;13.80;99.90;;;;;;4955243;29;20260;-76
2021/05/17 05:41:31;;;;;;;0.65;0.65;;;13.90;99.90;;;;;;4954959;29;20225;-76
2021/05/17 05:43:59;;;;;;;0.63;0.63;;;13.80;99.90;;;;;;4954887;29;20252;-76
2021/05/17 05:46:27;;;;;;;0.70;0.70;;;13.80;99.90;;;;;;4954943;28;20205;-76
2021/05/17 05:48:57;;;;;;;0.60;0.60;;;13.90;99.90;;;;;;4954756;29;20359;-77
2021/05/17 05:51:28;;;;;;;0.60;0.60;;;13.90;99.90;;;;;;4954560;29;20229;-76
2021/05/17 05:53:56;;;;;;;0.70;0.70;;;13.80;99.90;;;;;;4952865;29;20697;-76
2021/05/17 05:56:24;;;;;;;0.60;0.60;;;13.90;99.90;;;;;;4954965;29;20582;-76
2021/05/17 05:58:52;;;;;;;0.70;0.70;;;13.70;99.90;;;;;;4963382;29;20676;-75
2021/05/17 06:01:20;;;;;;;0.60;0.60;;;13.70;99.90;;;;;;4955182;29;20280;-77
2021/05/17 06:03:47;;;;;;;0.70;0.70;;;13.70;99.90;;;;;;4949704;29;20198;-77
2021/05/17 06:06:15;;;;;;;0.70;0.70;;;13.70;99.90;;;;;;4945727;29;20223;-77
2021/05/17 06:08:44;;;;;;;0.60;0.60;;;13.70;99.90;;;;;;4948306;29;20242;-77
2021/05/17 06:11:12;;;;;;;0.60;0.60;;;13.70;99.90;;;;;;4958305;29;20237;-77
2021/05/17 06:13:42;;;;;;;0.60;0.60;;;13.70;99.90;;;;;;4954416;29;20315;-75
2021/05/17 06:16:24;;;;;;;0.60;0.60;;;13.70;99.90;;;;;;4941072;29;20202;-76
2021/05/17 06:19:13;;;;;;;0.60;0.60;;;13.90;99.90;;;;;;4925583;29;20218;-73
2021/05/17 06:21:41;;;;;;;0.60;0.60;;;14.10;99.90;;;;;;4935276;29;20233;-76
2021/05/17 06:24:12;;;;;;;0.60;0.60;;;14.20;99.90;;;;;;4935339;29;20237;-77
2021/05/17 06:26:39;;;;;;;0.70;0.70;;;14.20;99.90;;;;;;4935488;29;20215;-76
2021/05/17 06:29:08;;;;;;;0.60;0.60;;;14.20;99.90;;;;;;4938789;29;20201;-76
2021/05/17 06:31:40;;;;;;;0.70;0.70;;;14.20;99.90;;;;;;4945147;29;20224;-76
2021/05/17 06:34:09;;;;;;;0.60;0.60;;;14.10;99.90;;;;;;4945340;29;20272;-76
2021/05/17 06:36:36;;;;;;;0.70;0.70;;;14.20;99.90;;;;;;4949518;29;20817;-76
2021/05/17 06:39:07;;;;;;;0.60;0.60;;;14.20;99.90;;;;;;4936362;29;20198;-76
2021/05/17 06:41:35;;;;;;;0.60;0.60;;;14.20;99.90;;;;;;4937799;29;20273;-78
2021/05/17 06:44:05;;;;;;;0.60;0.60;;;14.30;99.90;;;;;;4954750;29;20209;-79
2021/05/17 06:46:32;;;;;;;0.50;0.50;;;14.30;99.90;;;;;;4955091;29;20202;-77
2021/05/17 06:49:00;;;;;;;0.70;0.70;;;14.30;99.90;;;;;;4954171;29;20208;-77
2021/05/17 06:51:28;;;;;;;0.50;0.50;;;14.40;99.90;;;;;;4952096;29;20225;-77
2021/05/17 06:53:58;;;;;;;0.60;0.60;;;14.40;99.90;;;;;;4953240;29;20269;-76
2021/05/17 06:56:28;;;;;;;0.50;0.50;;;14.40;99.90;;;;;;4953536;29;20209;-76
2021/05/17 06:58:58;;;;;;;0.60;0.60;;;14.40;99.90;;;;;;4953164;28;20264;-77
2021/05/17 07:01:27;;;;;;;0.60;0.60;;;14.30;99.90;;;;;;4953451;29;20280;-76
2021/05/17 07:03:56;;;;;;;0.65;0.65;;;14.40;99.90;;;;;;4953631;29;20670;-77
2021/05/17 07:06:25;;;;;;;0.50;0.50;;;14.30;99.90;;;;;;4954729;29;20213;-76
2021/05/17 07:11:48;;;;;;;0.70;0.70;;;14.30;99.90;;;;;;4953783;29;20244;-76
2021/05/17 07:14:17;;;;;;;0.68;0.68;;;14.30;99.90;;;;;;4953859;29;20236;-76
2021/05/17 07:16:46;;;;;;;0.50;0.50;;;14.50;99.90;;;;;;4954056;29;20574;-76
2021/05/17 07:19:17;;;;;;;0.50;0.50;;;14.60;99.90;;;;;;4953997;29;20205;-76
2021/05/17 07:24:27;;;;;;;0.60;0.60;;;14.50;99.90;;;;;;4921709;29;20201;-76
2021/05/17 07:26:55;;;;;;;0.60;0.60;;;14.40;99.90;;;;;;4953983;29;20212;-76
2021/05/17 07:29:24;;;;;;;0.50;0.50;;;14.40;99.90;;;;;;4953659;29;20213;-76
2021/05/17 07:31:51;;;;;;;0.60;0.60;;;14.40;99.90;;;;;;4953671;29;20276;-76
2021/05/17 07:34:20;;;;;;;0.60;0.60;;;14.50;99.90;;;;;;4953519;29;20261;-76
2021/05/17 07:36:47;;;;;;;0.60;0.60;;;14.70;99.90;;;;;;4953871;29;20555;-76
2021/05/17 07:39:15;;;;;;;0.60;0.60;;;14.80;99.90;;;;;;4953698;29;20205;-75
2021/05/17 07:41:43;;;;;;;0.50;0.50;;;14.90;99.90;;;;;;4953552;29;20304;-75
2021/05/17 07:44:11;;;;;;;0.60;0.60;;;15.00;99.90;;;;;;4953518;29;20739;-74
2021/05/17 07:46:40;;;;;;;0.60;0.60;;;;;;;;;;4954136;29;20209;-75
2021/05/17 07:49:13;;;;;;;0.60;0.60;;;15.20;99.90;;;;;;4953722;29;20808;-75
2021/05/17 07:51:42;;;;;;;0.50;0.50;;;15.40;99.90;;;;;;4953197;29;20776;-76
2021/05/17 07:54:10;;;;;;;0.60;0.60;;;15.50;99.90;;;;;;4953393;29;20272;-76
2021/05/17 07:56:37;;;;;;;0.50;0.50;;;15.70;99.90;;;;;;4954479;29;20205;-75
2021/05/17 07:59:05;;;;;;;0.60;0.60;;;15.90;99.90;;;;;;4953652;29;20737;-75
2021/05/17 08:01:33;;;;;;;0.50;0.50;;;16.10;99.90;;;;;;4953625;29;20230;-75
2021/05/17 08:04:01;;;;;;;0.60;0.60;;;15.90;99.90;;;;;;4953731;29;20205;-75
2021/05/17 08:06:29;;;;;;;0.60;0.60;;;15.90;99.90;;;;;;4953719;29;20357;-75
2021/05/17 08:08:56;;;;;;;0.50;0.50;;;16.10;99.90;;;;;;4953646;29;20213;-75
2021/05/17 08:11:24;;;;;;;0.50;0.50;;;16.30;99.90;;;;;;4955638;28;20653;-75
2021/05/17 08:13:51;;;;;;;0.60;0.60;;;16.30;99.90;;;;;;4956544;29;20213;-75
2021/05/17 08:16:21;;;;;;;0.47;0.47;;;16.40;99.90;;;;;;4957745;29;20216;-77
2021/05/17 08:18:49;;;;;;;0.60;0.60;;;16.50;99.90;;;;;;4957087;29;20625;-77
2021/05/17 08:21:17;;;;;;;0.50;0.50;;;16.60;99.90;;;;;;4956849;29;20225;-76
2021/05/17 08:23:45;;;;;;;0.50;0.50;;;16.80;99.90;;;;;;4956400;29;20700;-76
2021/05/17 08:26:12;;;;;;;0.50;0.50;;;17.10;98.90;;;;;;4956787;29;20213;-77
2021/05/17 08:28:41;;;;;;;0.50;0.50;;;17.10;96.60;;;;;;4956507;29;20268;-76
2021/05/17 08:31:11;;;;;;;0.40;0.40;;;17.00;96.70;;;;;;4956627;29;20579;-76
2021/05/17 08:33:39;;;;;;;0.40;0.40;;;16.90;96.50;;;;;;4956883;29;20220;-77
2021/05/17 08:36:07;;;;;;;0.40;0.40;;;16.90;97.80;;;;;;4956387;29;20579;-76
2021/05/17 08:38:36;;;;;;;0.50;0.50;;;16.90;99.20;;;;;;4956333;29;20662;-77
2021/05/17 08:41:05;;;;;;;0.40;0.40;;;17.00;98.00;;;;;;4956268;29;20221;-77
2021/05/17 08:43:36;;;;;;;0.50;0.50;;;17.10;97.20;;;;;;4956249;29;20663;-76
2021/05/17 08:46:04;;;;;;;0.40;0.40;;;17.10;97.80;;;;;;4956365;29;20354;-76
2021/05/17 08:48:31;;;;;;;0.50;0.50;;;17.20;97.20;;;;;;4956445;29;20214;-77
2021/05/17 08:50:59;;;;;;;0.40;0.40;;;16.90;97.40;;;;;;4956506;29;20225;-77
2021/05/17 08:53:26;;;;;;;0.40;0.40;;;16.90;97.20;;;;;;4956649;29;20202;-75
2021/05/17 08:55:54;;;;;;;0.40;0.40;;;16.70;98.10;;;;;;4939542;29;20239;-75
2021/05/17 08:58:22;;;;;;;0.40;0.40;;;16.60;97.30;;;;;;4942111;29;20236;-77
2021/05/17 09:00:49;;;;;;;0.50;0.50;;;16.50;97.40;;;;;;4944586;29;20702;-77
2021/05/17 09:03:17;;;;;;;0.40;0.40;;;16.40;97.50;;;;;;4947488;29;20530;-76
2021/05/17 09:05:47;;;;;;;0.60;0.60;;;16.40;97.60;;;;;;4947092;29;20722;-76
2021/05/17 09:08:15;;;;;;;0.50;0.50;;;16.50;96.50;;;;;;4947214;29;20206;-76
2021/05/17 09:10:47;;;;;;;0.40;0.40;;;16.70;96.10;;;;;;4948472;29;20225;-77
2021/05/17 09:13:18;;;;;;;0.60;0.60;;;16.90;97.20;;;;;;4949860;29;20908;-77
2021/05/17 09:15:47;;;;;;;0.50;0.50;;;17.10;96.90;;;;;;4949249;28;20565;-74
2021/05/17 09:18:17;;;;;;;0.50;0.50;;;17.20;94.80;;;;;;4941016;29;20645;-75
2021/05/17 09:20:46;;;;;;;0.50;0.50;;;17.30;94.00;;;;;;4938789;28;20287;-75
2021/05/17 09:23:17;;;;;;;0.50;0.50;;;17.30;93.10;;;;;;4961326;28;20236;-78
2021/05/17 09:26:03;;;;;;;0.50;0.50;;;17.40;92.90;;;;;;4959418;28;20201;-77
2021/05/17 09:28:33;;;;;;;0.40;0.40;;;17.60;93.70;;;;;;4944494;28;20245;-78
2021/05/17 09:31:06;;;;;;;0.50;0.50;;;17.60;93.50;;;;;;4960829;28;20228;-77
2021/05/17 09:33:45;;;;;;;0.50;0.50;;;17.60;93.60;;;;;;4956222;28;20209;-76
2021/05/17 09:36:28;;;;;;;0.40;0.40;;;17.60;93.30;;;;;;4943700;29;20222;-79
2021/05/17 09:38:57;;;;;;;0.50;0.50;;;17.70;92.40;;;;;;4950525;29;20212;-77
2021/05/17 09:41:36;;;;;;;0.50;0.50;;;17.70;93.50;;;;;;4940798;29;20229;-81
2021/05/17 09:44:05;;;;;;;0.40;0.40;;;17.90;93.60;;;;;;4976371;28;20212;-79
2021/05/17 09:47:01;;;;;;;0.40;0.40;;;17.90;91.30;;;;;;4978758;28;20205;-80
2021/05/17 09:49:35;;;;;;;0.40;0.40;;;17.90;92.20;;;;;;4979915;28;20204;-77
2021/05/17 09:52:07;;;;;;;0.40;0.40;;;18.00;91.90;;;;;;4953010;28;20221;-77
2021/05/17 09:54:55;;;;;;;0.40;0.40;;;17.90;90.80;;;;;;4945440;29;20653;-75
2021/05/17 09:57:26;;;;;;;0.40;0.40;;;18.00;91.40;;;;;;4946067;29;20208;-75
2021/05/17 09:59:55;;;;;;;0.40;0.40;;;17.80;92.50;;;;;;4942832;28;20202;-75
2021/05/17 10:02:35;;;;;;;0.40;0.40;;;17.70;91.20;;;;;;4947624;28;20232;-80
2021/05/17 10:05:12;;;;;;;0.40;0.40;;;17.80;90.40;;;;;;4965013;28;20194;-79
2021/05/17 10:07:39;;;;;;;0.40;0.40;;;17.90;91.00;;;;;;4962284;28;20266;-80
2021/05/17 10:10:08;;;;;;;0.40;0.40;;;17.90;90.90;;;;;;4973861;28;20212;-79
2021/05/17 10:12:36;;;;;;;0.50;0.50;;;17.90;91.50;;;;;;4988428;28;20233;-79
2021/05/17 10:15:07;;;;;;;0.30;0.30;;;17.90;90.90;;;;;;4983846;28;20646;-79
2021/05/17 10:17:35;;;;;;;0.40;0.40;;;17.90;91.80;;;;;;4973962;28;20204;-77
2021/05/17 10:20:05;;;;;;;0.50;0.50;;;18.00;91.30;;;;;;4987298;28;20272;-79
2021/05/17 10:22:34;;;;;;;0.50;0.50;;;18.00;99.90;;;;;;5008366;23;20736;-78
2021/05/17 10:25:05;;;;;;;0.50;0.50;;;18.10;90.60;;;;;;4962161;28;20205;-77
2021/05/17 10:27:38;;;;;;;0.30;0.30;;;18.10;91.10;;;;;;4934683;29;20217;-78
2021/05/17 10:30:08;;;;;;;0.40;0.40;;;18.20;90.80;;;;;;4950393;28;20595;-77
2021/05/17 10:32:44;;;;;;;0.40;0.40;;;18.40;99.90;;;;;;4956944;28;20272;-77
2021/05/17 10:35:17;;;;;;;0.32;0.32;;;18.30;90.80;;;;;;4950193;29;20268;-78
2021/05/17 10:37:46;;;;;;;0.40;0.40;;;18.10;90.40;;;;;;4954659;28;20252;-77
2021/05/17 10:40:37;;;;;;;0.50;0.50;;;17.80;91.50;;;;;;4954323;28;20268;-78
2021/05/17 10:43:12;;;;;;;0.50;0.50;;;17.80;93.20;;;;;;4962486;28;20229;-77
2021/05/17 10:48:38;;;;;;;0.40;0.40;;;18.00;91.60;;;;;;4888586;29;20199;-78
2021/05/17 10:51:16;;;;;;;0.40;0.40;;;18.20;91.90;;;;;;4942653;28;20206;-77
2021/05/17 10:53:46;;;;;;;0.40;0.40;;;18.00;91.50;;;;;;4961774;28;20303;-79
2021/05/17 10:56:16;;;;;;;0.40;0.40;;;18.00;90.80;;;;;;4969174;28;20216;-78
2021/05/17 11:02:01;;;;;;;0.50;0.50;;;18.00;90.60;;;;;;4964329;28;20210;-78
2021/05/17 11:04:31;;;;;;;0.40;0.40;;;18.10;90.10;;;;;;4971205;28;20231;-77
2021/05/17 11:07:26;;;;;;;0.40;0.40;;;18.20;90.20;;;;;;4974291;28;20612;-77
2021/05/17 11:10:14;;;;;;;0.50;0.50;;;18.10;90.70;;;;;;4970992;28;20293;-78
2021/05/17 11:13:07;;;;;;;0.50;0.50;;;18.30;90.50;;;;;;4962831;28;20202;-79
2021/05/17 11:15:49;;;;;;;0.40;0.40;;;18.30;90.50;;;;;;4975397;28;20224;-80
2021/05/17 11:18:22;;;;;;;0.40;0.40;;;18.30;89.60;;;;;;4959520;28;20260;-75
2021/05/17 11:20:52;;;;;;;0.43;0.43;;;18.30;90.20;;;;;;4954419;28;20201;-79
2021/05/17 11:23:41;;;;;;;0.50;0.50;;;18.50;86.80;;;;;;4966233;28;20316;-77
2021/05/17 11:26:10;;;;;;;0.40;0.40;;;18.60;88.20;;;;;;4969927;28;20650;-78
2021/05/17 11:29:04;;;;;;;0.40;0.40;;;18.70;87.30;;;;;;4968987;28;20209;-78
2021/05/17 11:31:44;;;;;;;0.35;0.35;;;18.90;85.30;;;;;;4966561;28;20225;-79
2021/05/17 11:34:26;;;;;;;0.40;0.40;;;18.70;82.40;;;;;;4970792;28;20784;-78
2021/05/17 11:37:09;;;;;;;0.32;0.32;;;18.80;86.80;;;;;;4972525;28;20225;-77
2021/05/17 11:39:40;;;;;;;0.30;0.30;;;19.30;86.20;;;;;;4973906;28;20212;-77
2021/05/17 11:42:10;;;;;;;0.30;0.30;;;19.60;82.90;;;;;;4974493;28;20586;-78
2021/05/17 11:44:41;;;;;;;0.50;0.50;;;19.80;83.60;;;;;;4975344;28;20225;-78
2021/05/17 11:47:09;;;;;;;0.30;0.30;;;;;;;;;;4968761;28;20244;-79
2021/05/17 11:49:44;;;;;;;0.30;0.30;;;20.10;81.60;;;;;;4960070;29;20212;-77
2021/05/17 11:52:14;;;;;;;0.38;0.38;;;19.90;81.10;;;;;;4962611;28;20205;-76
2021/05/17 11:54:49;;;;;;;0.50;0.50;;;19.50;81.80;;;;;;4960542;28;20232;-77
2021/05/17 11:57:18;;;;;;;0.40;0.40;;;19.10;81.00;;;;;;4956486;28;20197;-77
2021/05/17 11:59:50;;;;;;;0.30;0.30;;;19.00;80.80;;;;;;4976906;28;20670;-78
2021/05/17 12:02:17;;;;;;;0.30;0.30;;;19.20;77.60;;;;;;4976710;28;20208;-78
2021/05/17 12:04:46;;;;;;;0.40;0.40;;;19.30;74.90;;;;;;4976334;28;20780;-77
2021/05/17 12:07:15;;;;;;;0.30;0.30;;;19.50;74.00;;;;;;4958159;28;20197;-80
2021/05/17 12:09:45;;;;;;;0.50;0.50;;;19.30;73.90;;;;;;4939785;29;20234;-79
2021/05/17 12:12:15;;;;;;;0.30;0.30;;;19.40;74.20;;;;;;4938300;29;20623;-78
2021/05/17 12:14:44;;;;;;;0.40;0.40;;;19.40;75.90;;;;;;4940121;29;20277;-78
2021/05/17 12:17:14;;;;;;;0.40;0.40;;;19.40;76.20;;;;;;4957961;28;20264;-81
2021/05/17 12:19:45;;;;;;;0.40;0.40;;;19.40;78.10;;;;;;4952726;28;20669;-79
2021/05/17 12:22:17;;;;;;;0.40;0.40;;;19.30;77.00;;;;;;4958780;29;20549;-77
2021/05/17 12:24:46;;;;;;;0.40;0.40;;;19.00;78.10;;;;;;4962524;28;20866;-78
2021/05/17 12:27:15;;;;;;;0.40;0.40;;;18.80;79.90;;;;;;4974118;28;20233;-78
2021/05/17 12:29:58;;;;;;;0.50;0.50;;;18.80;80.20;;;;;;4964814;29;20186;-78
2021/05/17 12:32:37;;;;;;;0.50;0.50;;;18.40;93.00;;;;;;4955799;28;20194;-77
2021/05/17 12:35:08;;;;;;;0.50;0.50;;;18.60;82.90;;;;;;4955466;28;20216;-77
2021/05/17 12:37:40;;;;;;;0.40;0.40;;;18.50;81.30;;;;;;4955926;28;20209;-77
2021/05/17 12:40:25;;;;;;;0.50;0.50;;;18.30;83.30;;;;;;4939879;28;20210;-78
2021/05/17 12:43:13;;;;;;;0.50;0.50;;;17.50;89.30;;;;;;4960841;28;20705;-76
2021/05/17 12:45:43;;;;;;;0.40;0.40;;;17.40;90.50;;;;;;4955758;28;20201;-77
2021/05/17 12:48:21;;;;;;;0.50;0.50;;;17.00;95.10;;;;;;4956003;28;20193;-76
2021/05/17 12:50:50;;;;;;;0.60;0.60;;;16.30;99.90;;;;;;4954666;28;20673;-77
2021/05/17 12:53:20;;;;;;;0.70;0.70;;;15.60;99.90;;;;;;4957031;28;20222;-80
2021/05/17 12:55:48;;;;;;;0.70;0.70;;;15.10;99.90;;;;;;4957654;28;20217;-79
2021/05/17 12:58:27;;;;;;;0.50;0.50;;;13.90;99.90;;;;;;4957368;28;20580;-78
2021/05/17 13:00:55;;;;;;;0.60;0.60;;;13.40;99.90;;;;;;4956379;28;20193;-78
2021/05/17 13:03:31;;;;;;;0.90;0.90;;;13.20;99.90;;;;;;4957854;28;20225;-81
2021/05/17 13:06:02;;;;;;;0.70;0.70;;;13.40;99.90;;;;;;4956467;28;20479;-79
2021/05/17 13:08:50;;;;;;;0.70;0.70;;;14.00;99.90;;;;;;4956765;28;20859;-81
2021/05/17 13:11:26;;;;;;;0.70;0.70;;;14.50;99.90;;;;;;4955936;28;20256;-80
2021/05/17 13:13:58;;;;;;;0.50;0.50;;;15.40;99.90;;;;;;4954852;28;20232;-80
2021/05/17 13:16:33;;;;;;;0.60;0.60;;;16.00;99.90;;;;;;4954919;28;20300;-79
2021/05/17 13:19:37;;;;;;;0.60;0.60;;;16.50;99.90;;;;;;4956491;28;20205;-80
2021/05/17 13:22:28;;;;;;;0.50;0.50;;;16.30;99.90;;;;;;4955519;28;20216;-79
2021/05/17 13:30:51;;;;;;;0.50;0.50;;;15.60;99.90;;;;;;4934848;29;20241;-79
2021/05/17 13:33:28;;;;;;;0.50;0.50;;;15.30;99.90;;;;;;4934899;29;20222;-78
2021/05/17 13:35:58;;;;;;;0.50;0.50;;;15.50;99.90;;;;;;4946508;28;20224;-80
2021/05/17 13:38:29;;;;;;;0.60;0.60;;;15.30;99.90;;;;;;4956407;28;20198;-80
2021/05/17 13:40:57;;;;;;;0.50;0.50;;;17.30;99.90;;;;;;4955943;28;20737;-79
2021/05/17 13:43:25;;;;;;;0.50;0.50;;;15.90;99.90;;;;;;4957406;28;20233;-80
2021/05/17 13:45:53;;;;;;;0.40;0.40;;;16.40;99.90;;;;;;4957192;28;20209;-80
2021/05/17 13:48:20;;;;;;;0.40;0.40;;;16.60;99.90;;;;;;4957003;28;20213;-81
2021/05/17 13:50:48;;;;;;;0.50;0.50;;;16.90;99.90;;;;;;4957103;28;20248;-80
2021/05/17 13:53:15;;;;;;;0.50;0.50;;;17.30;99.90;;;;;;4956663;28;20637;-79
2021/05/17 13:55:43;;;;;;;0.50;0.50;;;17.60;99.90;;;;;;4956367;28;20209;-79
2021/05/17 13:58:11;;;;;;;0.50;0.50;;;17.90;99.90;;;;;;4959642;28;20229;-80
2021/05/17 14:00:39;;;;;;;0.40;0.40;;;18.20;99.90;;;;;;4956841;28;20209;-81
2021/05/17 14:03:06;;;;;;;0.40;0.40;;;18.30;99.90;;;;;;4955654;28;20288;-81
2021/05/17 14:05:34;;;;;;;0.40;0.40;;;18.20;99.90;;;;;;4956406;28;20237;-80
2021/05/17 14:08:01;;;;;;;0.40;0.40;;;18.20;99.80;;;;;;4955809;28;20205;-81
2021/05/17 14:10:29;;;;;;;0.40;0.40;;;17.90;97.60;;;;;;4957161;28;20201;-80
2021/05/17 14:12:56;;;;;;;0.50;0.50;;;17.50;98.80;;;;;;4956908;28;20236;-80
2021/05/17 14:15:25;;;;;;;0.47;0.47;;;17.50;98.30;;;;;;4956872;28;20231;-81
2021/05/17 14:17:52;;;;;;;0.40;0.40;;;17.50;98.60;;;;;;4957230;28;20305;-81
2021/05/17 14:20:20;;;;;;;0.50;0.50;;;17.60;97.30;;;;;;4957378;28;20205;-79
2021/05/17 14:22:47;;;;;;;0.40;0.40;;;17.60;96.70;;;;;;4956567;28;20777;-81
2021/05/17 14:25:16;;;;;;;0.40;0.40;;;17.70;97.70;;;;;;4956495;28;20193;-81
2021/05/17 14:27:43;;;;;;;0.40;0.40;;;17.50;96.00;;;;;;4956916;28;20197;-80
2021/05/17 14:30:14;;;;;;;0.50;0.50;;;17.50;97.90;;;;;;4956516;28;20216;-80
2021/05/17 14:32:43;;;;;;;0.50;0.50;;;17.20;99.90;;;;;;4955247;28;20194;-80
2021/05/17 14:35:12;;;;;;;0.50;0.50;;;17.00;99.90;;;;;;4956139;28;20209;-81
2021/05/17 14:37:40;;;;;;;0.55;0.55;;;16.50;99.90;;;;;;4954858;28;20625;-81
2021/05/17 14:40:08;;;;;;;0.60;0.60;;;16.10;99.90;;;;;;4955915;28;20256;-81
2021/05/17 14:42:35;;;;;;;0.63;0.63;;;15.50;99.90;;;;;;4955284;28;20209;-81
2021/05/17 14:45:04;;;;;;;0.60;0.60;;;15.50;99.90;;;;;;4954626;28;20212;-80
2021/05/17 14:47:32;;;;;;;0.60;0.60;;;15.40;99.90;;;;;;4955154;28;20197;-80
2021/05/17 14:50:01;;;;;;;0.57;0.57;;;15.30;99.90;;;;;;4952204;28;20690;-82
2021/05/17 14:52:29;;;;;;;0.60;0.60;;;15.30;99.90;;;;;;4956164;28;20288;-80
2021/05/17 14:54:57;;;;;;;0.50;0.50;;;15.20;99.90;;;;;;4957072;29;20330;-80
2021/05/17 14:57:25;;;;;;;0.60;0.60;;;15.20;99.90;;;;;;4960296;29;20217;-81
2021/05/17 14:59:53;;;;;;;0.50;0.50;;;15.30;99.90;;;;;;4961603;29;20233;-79
2021/05/17 15:02:22;;;;;;;0.50;0.50;;;15.40;99.90;;;;;;4961291;29;20326;-79
2021/05/17 15:04:49;;;;;;;0.60;0.60;;;15.70;99.90;;;;;;4958722;28;20221;-80
2021/05/17 15:07:19;;;;;;;0.57;0.57;;;16.00;99.90;;;;;;4954073;29;20234;-81
2021/05/17 15:09:50;;;;;;;0.50;0.50;;;16.10;99.90;;;;;;4956226;28;20288;-80
2021/05/17 15:12:17;;;;;;;0.50;0.50;;;16.30;99.90;;;;;;4956161;28;20198;-80
2021/05/17 15:14:45;;;;;;;0.60;0.60;;;16.50;99.90;;;;;;4954869;28;20257;-80
2021/05/17 15:17:12;;;;;;;0.50;0.50;;;16.80;99.90;;;;;;4956564;29;20221;-80
2021/05/17 15:19:41;;;;;;;0.60;0.60;;;16.90;99.90;;;;;;4960713;28;20206;-79
2021/05/17 15:22:08;;;;;;;0.50;0.50;;;16.90;99.90;;;;;;4964501;28;20252;-79
2021/05/17 15:24:36;;;;;;;0.40;0.40;;;17.00;99.90;;;;;;4963466;28;20661;-80
2021/05/17 15:27:04;;;;;;;0.40;0.40;;;17.30;99.90;;;;;;4965845;28;20194;-79
2021/05/17 15:29:32;;;;;;;0.50;0.50;;;17.40;99.90;;;;;;4965981;29;20217;-79
2021/05/17 15:31:59;;;;;;;0.50;0.50;;;17.40;99.90;;;;;;4965306;28;20737;-80
2021/05/17 15:34:27;;;;;;;0.40;0.40;;;17.40;99.90;;;;;;4967933;28;20284;-80
2021/05/17 15:36:54;;;;;;;0.50;0.50;;;17.50;99.90;;;;;;4963624;28;20228;-79
2021/05/17 15:39:21;;;;;;;0.50;0.50;;;17.50;99.90;;;;;;4963882;28;20252;-79
2021/05/17 15:41:50;;;;;;;0.50;0.50;;;17.40;98.60;;;;;;4964135;28;20213;-80
2021/05/17 15:44:17;;;;;;;0.50;0.50;;;17.60;96.90;;;;;;4962133;28;20225;-79
2021/05/17 15:46:45;;;;;;;0.50;0.50;;;17.40;94.40;;;;;;4965447;28;20250;-79
2021/05/17 15:49:12;;;;;;;0.50;0.50;;;17.40;95.60;;;;;;4965596;28;20582;-79
2021/05/17 15:51:39;;;;;;;0.50;0.50;;;17.50;93.10;;;;;;4964859;29;20601;-79
2021/05/17 15:54:07;;;;;;;0.50;0.50;;;17.50;93.20;;;;;;4965068;28;20567;-79
2021/05/17 15:56:34;;;;;;;0.40;0.40;;;17.70;93.50;;;;;;4964423;28;20225;-79
2021/05/17 15:59:06;;;;;;;0.40;0.40;;;18.00;91.60;;;;;;4960080;29;20566;-78
2021/05/17 16:01:36;;;;;;;0.40;0.40;;;18.00;89.90;;;;;;4964010;28;20589;-79
2021/05/17 16:04:04;;;;;;;0.40;0.40;;;18.40;90.00;;;;;;4962693;28;20247;-78
2021/05/17 16:06:31;;;;;;;0.40;0.40;;;18.40;88.00;;;;;;4963208;28;20624;-78
2021/05/17 16:08:59;;;;;;;0.40;0.40;;;18.50;87.00;;;;;;4962754;28;20234;-79
2021/05/17 16:11:29;;;;;;;0.40;0.40;;;18.70;84.10;;;;;;4964565;28;20217;-79
2021/05/17 16:13:59;;;;;;;0.40;0.40;;;18.70;82.80;;;;;;4966440;28;20271;-79
2021/05/17 16:16:43;;;;;;;0.40;0.40;;;18.80;84.20;;;;;;4966029;28;20201;-79
2021/05/17 16:21:56;;;;;;;0.50;0.50;;;18.80;83.60;;;;;;4964952;28;20253;-79
2021/05/17 16:24:23;;;;;;;0.40;0.40;;;19.00;83.50;;;;;;5009432;23;20290;-76
2021/05/17 16:26:52;;;;;;;0.50;0.50;;;19.80;90.80;;;;;;4993948;28;20196;-78
2021/05/17 16:29:19;;;;;;;0.40;0.40;;;19.40;80.70;;;;;;5001206;28;20204;-78
2021/05/17 16:31:49;;;;;;;0.40;0.40;;;19.90;80.20;;;;;;4996684;28;20236;-76
2021/05/17 16:34:19;;;;;;;0.30;0.30;;;;;;;;;;4982657;28;20232;-76
2021/05/17 16:36:47;;;;;;;0.30;0.30;;;20.80;74.00;;;;;;4970461;28;20341;-76
2021/05/17 16:39:34;;;;;;;0.40;0.40;;;20.70;73.50;;;;;;4963793;28;21053;-75
2021/05/17 16:42:02;;;;;;;0.30;0.30;;;20.90;74.50;;;;;;4965384;28;20275;-76
2021/05/17 16:44:29;;;;;;;0.30;0.30;;;21.50;72.30;;;;;;4970294;28;20628;-77
2021/05/17 16:46:57;;;;;;;0.30;0.30;;;21.50;71.90;;;;;;4975637;28;20259;-76
2021/05/17 16:49:25;;;;;;;0.30;0.30;;;21.90;72.40;;;;;;4975572;28;20260;-76
2021/05/17 16:51:54;;;;;;;0.30;0.30;;;22.60;77.00;;;;;;4968961;28;20247;-76
2021/05/17 16:54:23;;;;;;;0.20;0.20;;;22.70;68.10;;;;;;4966835;28;20225;-77
2021/05/17 16:56:51;;;;;;;0.20;0.20;;;22.30;66.50;;;;;;4964937;28;20686;-76
2021/05/17 16:59:20;;;;;;;0.40;0.40;;;21.10;82.50;;;;;;4964657;28;20198;-76
2021/05/17 17:01:50;;;;;;;0.40;0.40;;;21.00;72.90;;;;;;4966055;28;20194;-76
2021/05/17 17:04:18;;;;;;;0.40;0.40;;;20.60;72.40;;;;;;4964636;28;20252;-76
2021/05/17 17:06:46;;;;;;;0.50;0.50;;;20.40;73.70;;;;;;4963914;28;20251;-76
2021/05/17 17:09:15;;;;;;;0.30;0.30;;;20.60;72.80;;;;;;4963488;28;20197;-75
2021/05/17 17:11:43;;;;;;;0.40;0.40;;;20.10;73.10;;;;;;4970134;28;20566;-75
2021/05/17 17:14:13;;;;;;;0.30;0.30;;;19.80;73.80;;;;;;4967064;28;20224;-75
2021/05/17 17:16:42;;;;;;;0.50;0.50;;;19.10;76.50;;;;;;4956743;29;20674;-75
2021/05/17 17:19:10;;;;;;;0.40;0.40;;;18.50;91.80;;;;;;4969204;28;20713;-75
2021/05/17 17:21:42;;;;;;;0.60;0.60;;;18.40;79.80;;;;;;4976512;28;20209;-75
2021/05/17 17:24:11;;;;;;;0.50;0.50;;;18.60;80.00;;;;;;4969942;28;20248;-75
2021/05/17 17:26:39;;;;;;;0.40;0.40;;;19.40;78.60;;;;;;4959027;28;20725;-76
2021/05/17 17:29:07;;;;;;;0.40;0.40;;;19.70;77.00;;;;;;4973537;28;20216;-75
2021/05/17 17:31:35;;;;;;;0.30;0.30;;;19.70;76.20;;;;;;4973679;28;20207;-75
2021/05/17 17:34:04;;;;;;;0.40;0.40;;;19.10;77.20;;;;;;4974824;28;20275;-75
2021/05/17 17:36:32;;;;;;;0.40;0.40;;;19.00;78.50;;;;;;4974745;28;20857;-75
2021/05/17 17:39:01;;;;;;;0.40;0.40;;;18.80;79.50;;;;;;4974982;28;20585;-75
2021/05/17 17:41:28;;;;;;;0.40;0.40;;;18.20;81.60;;;;;;4975085;28;20209;-75